Time;durP1;ratioP1;P1;durP2;ratioP2;P2;SDS_P1;SDS_P2;PMS_P1;PMS_P2;Temp;Humidity;BMP_temperature;BMP_pressure;BME280_temperature;BME280_humidity;BME280_pressure;Samples;Min_cycle;Max_cycle;Signal;HPM_P1;HPM_P2
2023/12/31 00:01:34;;;;;;;;;;;;;;;2.81;64.77;94810.28;5017642;28;19928;-65
2023/12/31 00:03:59;;;;;;;;;;;;;;;4.68;60.08;94804.06;5016222;28;19960;-62
2023/12/31 00:06:24;;;;;;;;;;;;;;;4.99;59.10;94792.91;5017397;28;19956;-62
2023/12/31 00:08:49;;;;;;;;;;;;;;;3.69;63.94;94794.75;5017916;28;19932;-64
2023/12/31 00:11:15;;;;;;;;;;;;;;;3.79;64.18;94784.94;5014419;28;19957;-64
2023/12/31 00:13:40;;;;;;;;;;;;;;;4.63;60.89;94788.72;5017170;28;19963;-64
2023/12/31 00:16:05;;;;;;;;;;;;;;;4.19;62.46;94782.66;5016946;28;19925;-65
2023/12/31 00:18:31;;;;;;;;;;;;;;;4.84;60.39;94783.00;5017809;28;20687;-65
2023/12/31 00:20:56;;;;;;;;;;;;;;;5.33;59.03;94778.78;5017481;28;19991;-63
2023/12/31 00:23:21;;;;;;;;;;;;;;;5.32;58.64;94773.66;5015035;28;19925;-64
2023/12/31 00:25:46;;;;;;;;;;;;;;;4.82;59.63;94776.22;5017232;28;19983;-62
2023/12/31 00:28:12;;;;;;;;;;;;;;;5.18;58.04;94777.78;5017557;28;19925;-65
2023/12/31 00:30:37;;;;;;;;;;;;;;;5.53;57.99;94770.50;5015718;28;19921;-64
2023/12/31 00:33:02;;;;;;;;;;;;;;;5.07;58.65;94763.13;5016150;28;20297;-63
2023/12/31 00:35:27;;;;;;;;;;;;;;;5.22;58.27;94753.56;5017155;28;19929;-65
2023/12/31 00:37:53;;;;;;;;;;;;;;;5.62;57.64;94750.22;5017655;28;20578;-64
2023/12/31 00:40:18;;;;;;;;;;;;;;;5.85;57.16;94741.56;5016341;28;19929;-63
2023/12/31 00:42:43;;;;;;;;;;;;;;;5.92;56.12;94739.06;5017483;28;20008;-63
2023/12/31 00:45:09;;;;;;;;;;;;;;;5.93;56.08;94735.41;5015149;28;19933;-64
2023/12/31 00:47:34;;;;;;;;;;;;;;;5.35;56.48;94726.63;5016703;28;20080;-63
2023/12/31 00:49:59;;;;;;;;;;;;;;;4.57;58.47;94734.84;5016694;28;19925;-63
2023/12/31 00:52:24;;;;;;;;;;;;;;;5.25;57.52;94718.09;5016916;28;20476;-63
2023/12/31 00:54:50;;;;;;;;;;;;;;;5.33;57.02;94709.31;5016846;28;19921;-64
2023/12/31 00:57:16;;;;;;;;;;;;;;;4.86;57.42;94716.91;5017048;28;20318;-63
2023/12/31 00:59:41;;;;;;;;;;;;;;;5.15;57.64;94707.69;5016572;28;19936;-63
2023/12/31 01:02:06;;;;;;;;;;;;;;;5.40;57.27;94712.09;5016625;28;19924;-64
2023/12/31 01:04:31;;;;;;;;;;;;;;;4.95;57.53;94717.72;5017228;28;19925;-66
2023/12/31 01:06:57;;;;;;;;;;;;;;;5.02;58.30;94718.72;5016329;28;19929;-64
2023/12/31 01:09:22;;;;;;;;;;;;;;;4.27;59.92;94723.06;5017123;28;19917;-65
2023/12/31 01:11:47;;;;;;;;;;;;;;;4.92;58.59;94718.88;5016666;28;20003;-65
2023/12/31 01:14:14;;;;;;;;;;;;;;;4.86;58.09;94708.97;5016121;28;19925;-64
2023/12/31 01:16:39;;;;;;;;;;;;;;;5.18;57.70;94710.00;5017134;28;19929;-65
2023/12/31 01:19:05;;;;;;;;;;;;;;;3.92;60.64;94708.13;5016595;28;20017;-64
2023/12/31 01:21:30;;;;;;;;;;;;;;;4.72;59.48;94707.81;5016309;28;20035;-65
2023/12/31 01:23:55;;;;;;;;;;;;;;;5.04;58.43;94692.19;5016582;28;19925;-67
2023/12/31 01:26:20;;;;;;;;;;;;;;;5.00;57.54;94694.31;5016781;28;20397;-67
2023/12/31 01:28:45;;;;;;;;;;;;;;;5.03;57.59;94682.63;5016623;28;20016;-64
2023/12/31 01:31:20;;;;;;;;;;;;;;;5.05;57.87;94670.06;5016376;28;19921;-65
2023/12/31 01:33:45;;;;;;;;;;;;;;;5.20;57.26;94662.31;5017193;28;19924;-64
2023/12/31 01:36:14;;;;;;;;;;;;;;;5.11;57.02;94660.69;5016713;28;19929;-64
2023/12/31 01:38:40;;;;;;;;;;;;;;;5.01;57.88;94656.41;5016490;28;19975;-65
2023/12/31 01:41:07;;;;;;;;;;;;;;;4.98;57.44;94659.38;5017353;28;19925;-64
2023/12/31 01:43:32;;;;;;;;;;;;;;;4.96;58.04;94651.63;5016445;28;19998;-65
2023/12/31 01:45:57;;;;;;;;;;;;;;;5.10;57.47;94641.38;5016741;28;20043;-66
2023/12/31 01:48:23;;;;;;;;;;;;;;;5.11;57.51;94642.22;5015433;28;19925;-65
2023/12/31 01:50:49;;;;;;;;;;;;;;;4.99;58.06;94634.63;5014553;28;19921;-64
2023/12/31 01:53:14;;;;;;;;;;;;;;;4.97;58.10;94634.78;5014288;28;20412;-67
2023/12/31 01:55:39;;;;;;;;;;;;;;;5.02;57.29;94625.53;5014227;28;19976;-65
2023/12/31 01:58:05;;;;;;;;;;;;;;;4.88;57.88;94630.53;5015335;28;19948;-64
2023/12/31 02:00:30;;;;;;;;;;;;;;;4.82;57.88;94621.47;5015317;28;20460;-65
2023/12/31 02:02:55;;;;;;;;;;;;;;;4.75;58.72;94630.19;5012974;28;19928;-67
2023/12/31 02:05:20;;;;;;;;;;;;;;;4.52;58.91;94617.69;5014194;28;19921;-64
2023/12/31 02:07:46;;;;;;;;;;;;;;;4.42;59.31;94612.59;5014806;28;19932;-64
2023/12/31 02:10:11;;;;;;;;;;;;;;;4.44;59.18;94606.16;5012672;28;19963;-67
2023/12/31 02:12:37;;;;;;;;;;;;;;;4.55;59.09;94604.16;5018136;28;19921;-64
2023/12/31 02:15:02;;;;;;;;;;;;;;;4.56;59.07;94603.19;5013789;28;19925;-66
2023/12/31 02:17:27;;;;;;;;;;;;;;;4.54;59.48;94599.88;5018395;28;20023;-65
2023/12/31 02:19:52;;;;;;;;;;;;;;;4.53;59.15;94585.06;5018423;28;20853;-63
2023/12/31 02:22:18;;;;;;;;;;;;;;;4.61;57.60;94592.13;5014427;28;19928;-65
2023/12/31 02:24:47;;;;;;;;;;;;;;;4.28;59.10;94596.41;5015358;28;20370;-64
2023/12/31 02:27:12;;;;;;;;;;;;;;;4.30;59.07;94593.63;5014671;28;19920;-65
2023/12/31 02:29:37;;;;;;;;;;;;;;;4.25;60.11;94591.47;5017697;28;20340;-66
2023/12/31 02:32:03;;;;;;;;;;;;;;;4.28;60.33;94575.34;5020937;28;19921;-64
2023/12/31 02:34:28;;;;;;;;;;;;;;;4.15;60.58;94575.81;5020499;28;19921;-66
2023/12/31 02:36:53;;;;;;;;;;;;;;;4.33;60.18;94567.75;5022767;28;19921;-66
2023/12/31 02:39:18;;;;;;;;;;;;;;;4.14;60.68;94565.44;5019590;28;20489;-65
2023/12/31 02:41:44;;;;;;;;;;;;;;;4.32;60.16;94549.50;5019949;28;20023;-64
2023/12/31 02:44:09;;;;;;;;;;;;;;;4.11;59.54;94534.97;5014007;28;19972;-64
2023/12/31 02:46:34;;;;;;;;;;;;;;;4.14;60.46;94537.28;5018730;28;20042;-66
2023/12/31 02:48:59;;;;;;;;;;;;;;;4.35;60.31;94525.44;5019222;28;19917;-65
2023/12/31 02:51:25;;;;;;;;;;;;;;;4.42;57.37;94523.78;5019247;28;20461;-64
2023/12/31 02:53:50;;;;;;;;;;;;;;;4.57;57.12;94520.47;5018718;28;19935;-64
2023/12/31 02:56:16;;;;;;;;;;;;;;;4.64;56.41;94521.44;5019412;28;19925;-64
2023/12/31 02:58:41;;;;;;;;;;;;;;;4.67;55.92;94500.03;5017840;28;20185;-63
2023/12/31 03:01:06;;;;;;;;;;;;;;;4.25;57.33;94508.97;5018630;28;20398;-64
2023/12/31 03:03:31;;;;;;;;;;;;;;;4.53;56.64;94509.41;5017929;28;20298;-64
2023/12/31 03:05:56;;;;;;;;;;;;;;;4.40;56.22;94504.69;5018329;28;19933;-63
2023/12/31 03:08:22;;;;;;;;;;;;;;;4.38;56.44;94505.81;5017543;28;19932;-64
2023/12/31 03:10:47;;;;;;;;;;;;;;;4.44;56.33;94490.19;5018233;28;19960;-65
2023/12/31 03:13:12;;;;;;;;;;;;;;;4.61;55.60;94482.22;5017566;28;19976;-66
2023/12/31 03:15:38;;;;;;;;;;;;;;;4.38;56.24;94479.47;5016515;28;20473;-65
2023/12/31 03:18:04;;;;;;;;;;;;;;;4.00;58.53;94480.00;5017997;28;19964;-63
2023/12/31 03:20:29;;;;;;;;;;;;;;;3.89;58.44;94470.63;5018169;28;19925;-62
2023/12/31 03:22:54;;;;;;;;;;;;;;;4.04;60.90;94462.88;5017575;28;19988;-65
2023/12/31 03:25:20;;;;;;;;;;;;;;;3.98;60.68;94453.81;5017786;28;20496;-65
2023/12/31 03:27:45;;;;;;;;;;;;;;;4.05;60.88;94461.91;5017073;28;19948;-64
2023/12/31 03:30:10;;;;;;;;;;;;;;;3.71;61.37;94454.97;5017750;28;20299;-64
2023/12/31 03:32:36;;;;;;;;;;;;;;;4.05;60.40;94451.38;5017541;28;20073;-64
2023/12/31 03:35:01;;;;;;;;;;;;;;;4.22;60.32;94451.34;5017441;28;19929;-64
2023/12/31 03:37:27;;;;;;;;;;;;;;;4.24;59.83;94455.44;5017687;28;20369;-63
2023/12/31 03:39:54;;;;;;;;;;;;;;;4.17;60.10;94457.94;5016594;28;19925;-62
2023/12/31 03:42:19;;;;;;;;;;;;;;;4.24;60.45;94446.72;5017788;28;19921;-64
2023/12/31 03:44:44;;;;;;;;;;;;;;;4.18;58.89;94441.13;5014143;28;19924;-65
2023/12/31 03:47:10;;;;;;;;;;;;;;;4.36;59.80;94441.94;5018302;28;19928;-64
2023/12/31 03:49:35;;;;;;;;;;;;;;;4.31;59.46;94451.16;5011988;28;20275;-65
2023/12/31 03:52:00;;;;;;;;;;;;;;;4.38;60.14;94448.69;5017834;28;19928;-62
2023/12/31 03:54:25;;;;;;;;;;;;;;;4.35;56.69;94451.63;5017460;28;20216;-63
2023/12/31 03:56:51;;;;;;;;;;;;;;;3.93;58.89;94446.44;5018078;28;19917;-65
2023/12/31 03:59:16;;;;;;;;;;;;;;;4.16;59.44;94444.94;5017413;28;19933;-64
2023/12/31 04:01:44;;;;;;;;;;;;;;;4.43;58.81;94433.16;5017655;28;19921;-64
2023/12/31 04:04:10;;;;;;;;;;;;;;;4.61;58.90;94424.25;5017429;28;19994;-63
2023/12/31 04:06:35;;;;;;;;;;;;;;;4.70;58.61;94417.13;5018110;28;20298;-64
2023/12/31 04:09:01;;;;;;;;;;;;;;;4.65;57.46;94415.00;5018001;28;19921;-65
2023/12/31 04:11:26;;;;;;;;;;;;;;;4.66;58.17;94414.00;5017277;28;20425;-62
2023/12/31 04:13:51;;;;;;;;;;;;;;;4.54;57.97;94413.56;5016450;28;19925;-65
2023/12/31 04:16:16;;;;;;;;;;;;;;;4.93;57.77;94404.00;5017778;28;20122;-63
2023/12/31 04:18:42;;;;;;;;;;;;;;;4.90;57.82;94406.16;5017661;28;20667;-63
2023/12/31 04:21:07;;;;;;;;;;;;;;;5.02;56.80;94396.88;5016812;28;19925;-65
2023/12/31 04:23:32;;;;;;;;;;;;;;;5.00;56.86;94390.13;5017494;28;19921;-63
2023/12/31 04:25:57;;;;;;;;;;;;;;;4.91;56.97;94391.97;5012616;28;20135;-63
2023/12/31 04:28:23;;;;;;;;;;;;;;;5.01;56.60;94375.94;5016878;28;19924;-65
2023/12/31 04:30:48;;;;;;;;;;;;;;;4.96;55.94;94374.63;5017212;28;19975;-63
2023/12/31 04:33:13;;;;;;;;;;;;;;;4.88;55.17;94366.78;5017771;28;20005;-66
2023/12/31 04:35:40;;;;;;;;;;;;;;;4.76;56.25;94355.78;5017329;28;19940;-64
2023/12/31 04:38:05;;;;;;;;;;;;;;;4.64;57.34;94339.53;5016086;28;19925;-63
2023/12/31 04:40:30;;;;;;;;;;;;;;;4.64;56.82;94336.06;5017323;28;19939;-65
2023/12/31 04:42:55;;;;;;;;;;;;;;;4.52;56.09;94340.91;5017219;28;20497;-63
2023/12/31 04:45:21;;;;;;;;;;;;;;;4.54;55.50;94334.47;5016611;28;20003;-65
2023/12/31 04:47:46;;;;;;;;;;;;;;;4.70;55.60;94333.56;5017129;28;19986;-64
2023/12/31 04:50:11;;;;;;;;;;;;;;;4.64;56.76;94321.09;5016728;28;20449;-65
2023/12/31 04:52:37;;;;;;;;;;;;;;;4.57;56.63;94312.22;5016373;28;19929;-65
2023/12/31 04:55:02;;;;;;;;;;;;;;;4.50;56.76;94309.44;5016564;28;19921;-63
2023/12/31 04:57:28;;;;;;;;;;;;;;;4.47;55.97;94306.31;5017452;28;20015;-65
2023/12/31 04:59:53;;;;;;;;;;;;;;;4.57;57.01;94307.78;5016899;28;20400;-64
2023/12/31 05:02:18;;;;;;;;;;;;;;;4.40;56.38;94317.56;5016119;28;19921;-63
2023/12/31 05:04:43;;;;;;;;;;;;;;;4.42;56.81;94302.38;5016378;28;19931;-64
2023/12/31 05:07:10;;;;;;;;;;;;;;;4.36;56.97;94307.53;5017223;28;19921;-65
2023/12/31 05:09:36;;;;;;;;;;;;;;;4.23;58.80;94302.81;5020241;28;19944;-65
2023/12/31 05:12:01;;;;;;;;;;;;;;;4.18;57.99;94290.97;5016327;28;19968;-64
2023/12/31 05:14:26;;;;;;;;;;;;;;;4.16;56.39;94287.69;5015410;28;19929;-65
2023/12/31 05:16:51;;;;;;;;;;;;;;;4.37;56.41;94294.19;5016957;28;19948;-64
2023/12/31 05:19:17;;;;;;;;;;;;;;;4.27;57.94;94289.13;5016785;28;19926;-64
2023/12/31 05:21:42;;;;;;;;;;;;;;;4.18;58.42;94272.53;5015634;28;20554;-64
2023/12/31 05:24:07;;;;;;;;;;;;;;;4.44;56.41;94279.34;5016663;28;19935;-65
2023/12/31 05:26:33;;;;;;;;;;;;;;;4.22;56.83;94274.81;5015810;28;19956;-66
2023/12/31 05:28:58;;;;;;;;;;;;;;;4.33;58.01;94274.44;5017049;28;19921;-63
2023/12/31 05:31:23;;;;;;;;;;;;;;;4.21;57.92;94273.19;5016207;28;20241;-63
2023/12/31 05:33:48;;;;;;;;;;;;;;;4.44;56.94;94274.06;5017373;28;19924;-65
2023/12/31 05:36:14;;;;;;;;;;;;;;;4.43;56.54;94279.50;5016237;28;20235;-65
2023/12/31 05:38:39;;;;;;;;;;;;;;;4.50;57.39;94279.63;5016479;28;19936;-64
2023/12/31 05:41:04;;;;;;;;;;;;;;;4.51;57.12;94283.91;5016655;28;20548;-65
2023/12/31 05:43:29;;;;;;;;;;;;;;;4.49;55.88;94275.34;5020424;28;19921;-65
2023/12/31 05:45:55;;;;;;;;;;;;;;;4.38;55.52;94271.28;5016208;28;20212;-64
2023/12/31 05:48:21;;;;;;;;;;;;;;;4.47;55.70;94261.53;5016340;28;19922;-63
2023/12/31 05:50:46;;;;;;;;;;;;;;;4.40;56.24;94272.78;5016323;28;20736;-64
2023/12/31 05:53:12;;;;;;;;;;;;;;;4.57;56.70;94257.69;5015590;28;20033;-66
2023/12/31 05:55:37;;;;;;;;;;;;;;;4.61;56.86;94263.44;5016311;28;20492;-64
2023/12/31 05:58:03;;;;;;;;;;;;;;;4.48;56.50;94271.06;5015910;28;19924;-66
2023/12/31 06:00:28;;;;;;;;;;;;;;;4.38;55.20;94261.56;5015946;28;19922;-64
2023/12/31 06:02:53;;;;;;;;;;;;;;;4.30;57.69;94256.34;5017068;28;19921;-64
2023/12/31 06:05:18;;;;;;;;;;;;;;;4.35;56.39;94246.09;5020308;28;19937;-65
2023/12/31 06:07:44;;;;;;;;;;;;;;;4.43;57.03;94240.78;5019942;28;20038;-64
2023/12/31 06:10:09;;;;;;;;;;;;;;;4.45;57.11;94241.44;5019623;28;20506;-65
2023/12/31 06:12:34;;;;;;;;;;;;;;;4.63;56.54;94242.97;5020305;28;19921;-66
2023/12/31 06:15:00;;;;;;;;;;;;;;;4.53;56.78;94247.66;5018590;28;20054;-65
2023/12/31 06:17:25;;;;;;;;;;;;;;;4.50;56.41;94243.56;5020036;28;19921;-66
2023/12/31 06:19:50;;;;;;;;;;;;;;;4.57;56.40;94236.59;5019904;28;20453;-64
2023/12/31 06:22:16;;;;;;;;;;;;;;;4.58;57.14;94240.88;5018319;28;19928;-65
2023/12/31 06:24:41;;;;;;;;;;;;;;;4.60;56.71;94240.69;5019573;28;19980;-65
2023/12/31 06:27:06;;;;;;;;;;;;;;;4.63;56.79;94237.69;5019421;28;20111;-64
2023/12/31 06:29:32;;;;;;;;;;;;;;;4.71;55.46;94247.38;5020390;28;19928;-64
2023/12/31 06:31:57;;;;;;;;;;;;;;;4.59;57.26;94244.31;5019728;28;19994;-65
2023/12/31 06:34:22;;;;;;;;;;;;;;;4.74;56.91;94236.50;5020189;28;20171;-64
2023/12/31 06:36:47;;;;;;;;;;;;;;;4.98;56.19;94245.22;5019865;28;20375;-65
2023/12/31 06:39:13;;;;;;;;;;;;;;;4.85;54.68;94227.34;5019401;28;20528;-64
2023/12/31 06:41:38;;;;;;;;;;;;;;;4.74;56.74;94231.22;5019833;28;19920;-64
2023/12/31 06:44:03;;;;;;;;;;;;;;;4.93;54.59;94231.75;5019184;28;20020;-66
2023/12/31 06:46:28;;;;;;;;;;;;;;;4.78;53.76;94236.94;5019456;28;19959;-63
2023/12/31 06:48:54;;;;;;;;;;;;;;;5.07;56.36;94225.72;5019690;28;19921;-63
2023/12/31 06:51:19;;;;;;;;;;;;;;;5.12;54.72;94219.91;5019287;28;19928;-63
2023/12/31 06:53:44;;;;;;;;;;;;;;;5.13;53.98;94226.03;5018405;28;19917;-65
2023/12/31 06:56:10;;;;;;;;;;;;;;;5.09;55.64;94225.53;5018830;28;19998;-64
2023/12/31 06:58:36;;;;;;;;;;;;;;;5.13;55.16;94221.53;5018427;28;20474;-64
2023/12/31 07:01:01;;;;;;;;;;;;;;;4.94;56.12;94218.34;5019034;28;19959;-65
2023/12/31 07:03:26;;;;;;;;;;;;;;;4.91;56.11;94224.00;5018874;28;19931;-63
2023/12/31 07:05:52;;;;;;;;;;;;;;;4.93;56.37;94211.44;5019438;28;19979;-66
2023/12/31 07:08:17;;;;;;;;;;;;;;;4.96;56.15;94216.38;5018969;28;19921;-62
2023/12/31 07:10:42;;;;;;;;;;;;;;;4.95;55.58;94213.91;5018139;28;20011;-64
2023/12/31 07:13:07;;;;;;;;;;;;;;;4.75;55.98;94217.03;5019239;28;19966;-64
2023/12/31 07:15:33;;;;;;;;;;;;;;;4.83;54.57;94195.06;5017278;28;19928;-64
2023/12/31 07:17:59;;;;;;;;;;;;;;;4.87;54.07;94196.34;5018643;28;20446;-64
2023/12/31 07:20:24;;;;;;;;;;;;;;;5.01;55.38;94201.84;5016505;28;19960;-65
2023/12/31 07:22:49;;;;;;;;;;;;;;;4.47;53.13;94195.63;5018804;28;19932;-63
2023/12/31 07:25:14;;;;;;;;;;;;;;;4.83;55.05;94192.44;5018603;28;20388;-63
2023/12/31 07:27:40;;;;;;;;;;;;;;;4.96;55.75;94192.63;5018434;28;19929;-65
2023/12/31 07:30:07;;;;;;;;;;;;;;;5.03;54.15;94189.31;5018986;28;19921;-65
2023/12/31 07:32:32;;;;;;;;;;;;;;;5.06;55.35;94195.06;5018929;28;19931;-65
2023/12/31 07:34:58;;;;;;;;;;;;;;;4.83;54.84;94187.97;5018120;28;19933;-65
2023/12/31 07:37:23;;;;;;;;;;;;;;;5.03;54.58;94182.19;5018749;28;19928;-64
2023/12/31 07:39:48;;;;;;;;;;;;;;;5.10;53.81;94187.59;5017843;28;19921;-64
2023/12/31 07:42:15;;;;;;;;;;;;;;;4.94;54.49;94196.47;5018239;28;19925;-65
2023/12/31 07:44:40;;;;;;;;;;;;;;;4.35;55.11;94182.84;5007841;28;19929;-64
2023/12/31 07:47:05;;;;;;;;;;;;;;;4.65;55.83;94179.53;5014951;28;19925;-64
2023/12/31 07:49:30;;;;;;;;;;;;;;;4.85;54.78;94171.97;5018446;28;20035;-65
2023/12/31 07:51:56;;;;;;;;;;;;;;;4.12;55.42;94162.56;5017511;28;20310;-65
2023/12/31 07:54:21;;;;;;;;;;;;;;;4.62;55.85;94178.06;5016359;28;20378;-63
2023/12/31 07:56:46;;;;;;;;;;;;;;;4.77;55.77;94170.22;5018264;28;19920;-65
2023/12/31 07:59:12;;;;;;;;;;;;;;;4.88;54.45;94168.16;5018404;28;20082;-63
2023/12/31 08:01:37;;;;;;;;;;;;;;;4.99;55.30;94161.66;5018552;28;19924;-64
2023/12/31 08:04:02;;;;;;;;;;;;;;;4.81;54.29;94171.50;5017554;28;20398;-66
2023/12/31 08:06:27;;;;;;;;;;;;;;;4.78;54.23;94160.47;5017774;28;19925;-66
2023/12/31 08:08:53;;;;;;;;;;;;;;;4.97;55.35;94167.09;5017560;28;20600;-64
2023/12/31 08:11:20;;;;;;;;;;;;;;;5.13;55.50;94163.50;5012806;28;19925;-64
2023/12/31 08:13:45;;;;;;;;;;;;;;;4.62;55.43;94158.81;5003685;28;20377;-65
2023/12/31 08:16:11;;;;;;;;;;;;;;;4.42;56.72;94151.38;4994784;28;20132;-64
2023/12/31 08:18:36;;;;;;;;;;;;;;;4.96;55.06;94163.63;4991270;28;19948;-66
2023/12/31 08:21:01;;;;;;;;;;;;;;;5.09;54.88;94154.31;5015831;28;20108;-65
2023/12/31 08:23:29;;;;;;;;;;;;;;;4.95;55.12;94151.44;5017259;28;19921;-64
2023/12/31 08:25:54;;;;;;;;;;;;;;;5.05;55.20;94145.91;5017044;28;19925;-66
2023/12/31 08:28:20;;;;;;;;;;;;;;;4.82;54.87;94154.69;5011374;28;20635;-65
2023/12/31 08:30:45;;;;;;;;;;;;;;;4.47;57.00;94137.66;5016733;28;19925;-64
2023/12/31 08:33:10;;;;;;;;;;;;;;;4.57;57.75;94123.25;5017735;28;20071;-67
2023/12/31 08:35:36;;;;;;;;;;;;;;;4.62;55.46;94122.69;5017229;28;20418;-65
2023/12/31 08:38:01;;;;;;;;;;;;;;;4.74;55.43;94120.47;5016659;28;19921;-65
2023/12/31 08:40:26;;;;;;;;;;;;;;;3.84;57.21;94114.84;5017118;28;20469;-66
2023/12/31 08:42:52;;;;;;;;;;;;;;;4.56;55.86;94111.06;5017132;28;19921;-64
2023/12/31 08:45:17;;;;;;;;;;;;;;;4.75;55.48;94113.38;5017360;28;19929;-65
2023/12/31 08:47:42;;;;;;;;;;;;;;;4.60;54.28;94118.59;5016735;28;19996;-66
2023/12/31 08:50:09;;;;;;;;;;;;;;;4.92;55.24;94106.97;5016951;28;19920;-67
2023/12/31 08:52:35;;;;;;;;;;;;;;;4.48;55.30;94111.13;5016628;28;19925;-64
2023/12/31 08:55:00;;;;;;;;;;;;;;;4.69;54.62;94102.53;5016764;28;19925;-66
2023/12/31 08:57:25;;;;;;;;;;;;;;;4.26;57.85;94103.06;5016999;28;19921;-64
2023/12/31 08:59:51;;;;;;;;;;;;;;;5.00;55.45;94107.88;5017016;28;19921;-63
2023/12/31 09:02:16;;;;;;;;;;;;;;;4.12;55.43;94120.41;5016516;28;19925;-64
2023/12/31 09:04:41;;;;;;;;;;;;;;;4.81;56.75;94116.13;5016249;28;20534;-64
2023/12/31 09:07:06;;;;;;;;;;;;;;;5.21;55.48;94112.47;5007593;28;19973;-67
2023/12/31 09:09:32;;;;;;;;;;;;;;;4.89;54.36;94117.84;4996570;28;19983;-63
2023/12/31 09:11:57;;;;;;;;;;;;;;;5.36;54.86;94109.84;4996608;28;19921;-65
2023/12/31 09:14:22;;;;;;;;;;;;;;;5.47;55.08;94121.75;4992380;28;19993;-64
2023/12/31 09:16:47;;;;;;;;;;;;;;;5.37;53.98;94100.09;4994715;28;20665;-64
2023/12/31 09:19:13;;;;;;;;;;;;;;;5.20;53.10;94109.00;4996732;28;20361;-64
2023/12/31 09:21:38;;;;;;;;;;;;;;;5.19;54.11;94096.00;4995462;28;19932;-66
2023/12/31 09:24:04;;;;;;;;;;;;;;;5.36;53.62;94101.91;5007361;28;19921;-65
2023/12/31 09:26:29;;;;;;;;;;;;;;;5.49;53.74;94090.72;5008442;28;20320;-65
2023/12/31 09:28:54;;;;;;;;;;;;;;;5.70;53.65;94087.31;5009115;28;20394;-65
2023/12/31 09:31:24;;;;;;;;;;;;;;;5.51;53.66;94087.91;5006959;28;19957;-64
2023/12/31 09:33:50;;;;;;;;;;;;;;;5.63;54.03;94096.97;5008133;28;19921;-64
2023/12/31 09:36:15;;;;;;;;;;;;;;;5.67;53.08;94085.03;5002117;28;19955;-64
2023/12/31 09:38:40;;;;;;;;;;;;;;;5.89;52.51;94087.75;5003908;28;20320;-66
2023/12/31 09:41:06;;;;;;;;;;;;;;;5.64;53.08;94095.16;5019546;28;19979;-63
2023/12/31 09:43:31;;;;;;;;;;;;;;;5.92;52.00;94090.00;5016249;28;19921;-64
2023/12/31 09:45:57;;;;;;;;;;;;;;;5.45;52.50;94107.94;5018443;28;19936;-64
2023/12/31 09:48:22;;;;;;;;;;;;;;;5.44;52.62;94093.09;5019015;28;19925;-66
2023/12/31 09:50:48;;;;;;;;;;;;;;;5.56;53.07;94096.06;5018992;28;19980;-63
2023/12/31 09:53:14;;;;;;;;;;;;;;;5.71;53.78;94086.31;5019335;28;20453;-66
2023/12/31 09:55:39;;;;;;;;;;;;;;;5.78;53.37;94089.03;5019843;28;19929;-65
2023/12/31 09:58:04;;;;;;;;;;;;;;;5.55;53.56;94079.41;5020344;28;19921;-65
2023/12/31 10:00:29;;;;;;;;;;;;;;;5.72;53.50;94074.72;5020640;28;19917;-65
2023/12/31 10:02:55;;;;;;;;;;;;;;;4.76;53.63;94081.56;5019558;28;19983;-63
2023/12/31 10:05:20;;;;;;;;;;;;;;;4.45;56.90;94082.47;5019604;28;19921;-64
2023/12/31 10:07:45;;;;;;;;;;;;;;;4.23;55.55;94086.78;5019219;28;20074;-64
2023/12/31 10:10:11;;;;;;;;;;;;;;;4.66;56.55;94079.16;5019192;28;20573;-63
2023/12/31 10:12:36;;;;;;;;;;;;;;;4.32;58.15;94062.00;5011409;28;20031;-77
2023/12/31 10:15:01;;;;;;;;;;;;;;;4.94;55.60;94057.47;4997517;28;20003;-77
2023/12/31 10:17:29;;;;;;;;;;;;;;;5.15;55.68;94063.91;4994729;28;20200;-77
2023/12/31 10:19:56;;;;;;;;;;;;;;;5.25;54.96;94050.44;5015926;28;20005;-77
2023/12/31 10:22:21;;;;;;;;;;;;;;;5.41;54.32;94046.75;5018170;28;19917;-77
2023/12/31 10:24:47;;;;;;;;;;;;;;;5.44;54.05;94041.09;5019514;28;19913;-77
2023/12/31 10:27:12;;;;;;;;;;;;;;;5.53;53.72;94041.00;5017158;28;19925;-77
2023/12/31 10:29:37;;;;;;;;;;;;;;;5.17;54.58;94053.16;5007979;28;20315;-77
2023/12/31 10:32:03;;;;;;;;;;;;;;;5.38;54.51;94044.50;5015971;28;20555;-77
2023/12/31 10:34:28;;;;;;;;;;;;;;;5.56;54.43;94045.91;5018367;28;19921;-77
2023/12/31 10:37:00;;;;;;;;;;;;;;;5.39;55.31;94048.78;5020135;28;19925;-77
2023/12/31 10:39:29;;;;;;;;;;;;;;;5.46;54.55;94035.66;5018015;28;19970;-66
2023/12/31 10:42:00;;;;;;;;;;;;;;;5.37;54.66;94034.13;5015832;28;20356;-66
2023/12/31 10:44:26;;;;;;;;;;;;;;;5.02;55.11;94039.91;5015656;28;19925;-66
2023/12/31 10:46:52;;;;;;;;;;;;;;;5.08;55.53;94039.22;5018655;28;19935;-66
2023/12/31 10:49:17;;;;;;;;;;;;;;;5.34;54.76;94030.84;5018272;28;20027;-66
2023/12/31 10:51:44;;;;;;;;;;;;;;;5.27;55.79;94011.47;5019057;28;20025;-66
2023/12/31 10:54:11;;;;;;;;;;;;;;;5.42;55.41;94003.53;5017137;28;19921;-66
2023/12/31 10:56:36;;;;;;;;;;;;;;;5.61;54.13;94002.13;5017460;28;19928;-66
2023/12/31 10:59:01;;;;;;;;;;;;;;;4.82;56.01;94025.47;5017188;28;19929;-66
2023/12/31 11:01:27;;;;;;;;;;;;;;;3.36;61.61;94034.09;5019107;28;19947;-66
2023/12/31 11:03:53;;;;;;;;;;;;;;;3.51;60.68;94028.97;5018455;28;19983;-66
2023/12/31 11:06:18;;;;;;;;;;;;;;;4.06;58.42;94026.31;5016814;28;19925;-66
2023/12/31 11:08:44;;;;;;;;;;;;;;;4.16;58.92;94029.53;5019085;28;19964;-66
2023/12/31 11:11:09;;;;;;;;;;;;;;;4.63;58.04;94020.72;5017431;28;20822;-66
2023/12/31 11:13:35;;;;;;;;;;;;;;;4.54;58.19;94009.44;5016223;28;19925;-66
2023/12/31 11:16:01;;;;;;;;;;;;;;;4.62;57.94;94004.06;5017686;28;19927;-66
2023/12/31 11:18:37;;;;;;;;;;;;;;;4.90;57.51;93989.47;5013445;28;19941;-66
2023/12/31 11:21:02;;;;;;;;;;;;;;;5.11;56.75;93974.72;4996918;28;20178;-66
2023/12/31 11:23:38;;;;;;;;;;;;;;;5.12;56.71;93979.81;4997486;28;20072;-66
2023/12/31 11:26:05;;;;;;;;;;;;;;;5.40;56.42;93963.28;4995286;28;19922;-66
2023/12/31 11:28:30;;;;;;;;;;;;;;;5.52;55.79;93953.09;5016648;28;20488;-66
2023/12/31 11:30:57;;;;;;;;;;;;;;;5.67;55.36;93950.38;5016695;28;19921;-65
2023/12/31 11:33:27;;;;;;;;;;;;;;;4.61;56.75;93959.44;5018545;28;19925;-68
2023/12/31 11:35:52;;;;;;;;;;;;;;;4.89;57.28;93961.44;5012005;28;19964;-67
2023/12/31 11:38:21;;;;;;;;;;;;;;;3.29;62.21;93965.56;5017604;28;20413;-65
2023/12/31 11:40:48;;;;;;;;;;;;;;;3.11;61.17;93971.09;5012245;28;19929;-65
2023/12/31 11:43:13;;;;;;;;;;;;;;;1.94;65.99;93995.00;5017401;28;19929;-65
2023/12/31 11:45:42;;;;;;;;;;;;;;;2.79;65.37;93978.94;5017502;28;19991;-65
2023/12/31 11:48:16;;;;;;;;;;;;;;;3.39;62.68;93957.47;5012622;28;20645;-66
2023/12/31 11:50:42;;;;;;;;;;;;;;;3.58;61.92;93966.75;5012295;28;20523;-66
2023/12/31 11:53:07;;;;;;;;;;;;;;;3.83;60.32;93966.56;5015950;28;19925;-65
2023/12/31 11:55:34;;;;;;;;;;;;;;;2.50;61.92;93961.94;5016397;28;20374;-69
2023/12/31 11:58:00;;;;;;;;;;;;;;;2.64;63.83;93984.91;5018048;28;20135;-66
2023/12/31 12:00:26;;;;;;;;;;;;;;;3.06;62.47;93982.13;5016650;28;19933;-68
2023/12/31 12:02:52;;;;;;;;;;;;;;;2.38;63.74;93971.97;5017231;28;19925;-66
2023/12/31 12:05:17;;;;;;;;;;;;;;;2.32;63.33;93984.00;5017192;28;19936;-66
2023/12/31 12:07:42;;;;;;;;;;;;;;;2.90;62.49;93967.25;5017206;28;19960;-67
2023/12/31 12:10:08;;;;;;;;;;;;;;;3.80;59.54;93966.91;5016221;28;19966;-65
2023/12/31 12:12:33;;;;;;;;;;;;;;;3.12;60.02;93960.41;5017016;28;19961;-66
2023/12/31 12:14:58;;;;;;;;;;;;;;;1.86;63.33;93961.72;5016412;28;20373;-66
2023/12/31 12:17:27;;;;;;;;;;;;;;;2.30;61.52;93949.19;5016023;28;19917;-65
2023/12/31 12:19:53;;;;;;;;;;;;;;;3.41;59.23;93952.84;5016829;28;19921;-68
2023/12/31 12:22:19;;;;;;;;;;;;;;;2.41;60.95;93955.09;5014640;28;19963;-67
2023/12/31 12:24:44;;;;;;;;;;;;;;;2.36;62.25;93959.03;5017167;28;20232;-66
2023/12/31 12:27:09;;;;;;;;;;;;;;;2.53;61.76;93957.16;5017087;28;19990;-64
2023/12/31 12:29:35;;;;;;;;;;;;;;;2.83;60.08;93943.47;5016989;28;20032;-65
2023/12/31 12:32:02;;;;;;;;;;;;;;;2.96;60.30;93950.78;5016455;28;19925;-64
2023/12/31 12:34:28;;;;;;;;;;;;;;;2.76;60.87;93964.31;5015648;28;19940;-64
2023/12/31 12:36:56;;;;;;;;;;;;;;;2.51;61.55;93964.41;5013409;28;20530;-67
2023/12/31 12:39:21;;;;;;;;;;;;;;;2.77;60.56;93946.75;5014675;28;20020;-66
2023/12/31 12:41:48;;;;;;;;;;;;;;;1.91;61.41;93963.03;5019685;28;20032;-65
2023/12/31 12:44:13;;;;;;;;;;;;;;;2.07;62.09;93963.00;5015865;28;19925;-65
2023/12/31 12:46:39;;;;;;;;;;;;;;;2.20;62.04;93957.25;5016060;28;19971;-66
2023/12/31 12:49:05;;;;;;;;;;;;;;;2.33;62.70;93974.28;5015906;28;19916;-64